createdAt,value
2017-09-16T00:01:35.753Z,85.96
2017-09-16T00:04:01.507Z,86.00
2017-09-16T00:06:27.265Z,86.92
2017-09-16T00:08:53.024Z,86.71
2017-09-16T00:11:18.775Z,86.96
2017-09-16T00:13:44.616Z,87.50
2017-09-16T00:16:10.390Z,87.39
2017-09-16T00:18:36.154Z,87.55
2017-09-16T00:21:01.958Z,87.80
2017-09-16T00:23:27.741Z,87.68
2017-09-16T00:25:53.507Z,87.70
2017-09-16T00:28:19.394Z,88.16
2017-09-16T00:30:45.132Z,88.26
2017-09-16T00:33:10.888Z,89.13
2017-09-16T00:35:36.676Z,90.00
2017-09-16T00:38:02.419Z,89.63
2017-09-16T00:40:28.198Z,89.00
2017-09-16T00:42:54.038Z,88.86
2017-09-16T00:45:19.842Z,87.76
2017-09-16T00:47:45.597Z,87.94
2017-09-16T00:50:11.390Z,88.44
2017-09-16T00:52:37.234Z,88.43
2017-09-16T00:55:03.030Z,88.34
2017-09-16T00:57:28.790Z,88.91
2017-09-16T00:59:54.575Z,87.99
2017-09-16T01:02:20.343Z,88.27
2017-09-16T01:04:46.091Z,87.69
2017-09-16T01:07:11.871Z,87.62
2017-09-16T01:09:37.666Z,87.61
2017-09-16T01:12:03.420Z,87.16
2017-09-16T01:14:29.166Z,86.80
2017-09-16T01:16:54.979Z,87.23
2017-09-16T01:19:20.773Z,87.02
2017-09-16T01:21:46.559Z,87.26
2017-09-16T01:24:12.371Z,87.80
2017-09-16T01:26:38.127Z,88.54
2017-09-16T01:29:03.894Z,88.53
2017-09-16T01:31:29.734Z,88.97
2017-09-16T01:33:55.515Z,88.37
2017-09-16T01:39:00.396Z,88.05
2017-09-16T01:41:26.201Z,88.43
2017-09-16T01:43:51.976Z,89.28
2017-09-16T01:46:17.775Z,90.14
2017-09-16T01:48:43.522Z,89.53
2017-09-16T01:51:09.275Z,88.74
2017-09-16T01:53:35.060Z,88.59
2017-09-16T01:56:00.888Z,88.71
2017-09-16T01:58:26.636Z,88.52
2017-09-16T02:00:52.467Z,88.55
2017-09-16T02:03:18.243Z,89.12
2017-09-16T02:05:44.011Z,89.03
2017-09-16T02:08:09.812Z,88.70
2017-09-16T02:10:35.603Z,88.97
2017-09-16T02:13:01.401Z,87.70
2017-09-16T02:15:27.171Z,88.30
2017-09-16T02:17:52.983Z,88.03
2017-09-16T02:20:18.771Z,87.56
2017-09-16T02:22:44.547Z,87.18
2017-09-16T02:25:10.358Z,87.03
2017-09-16T02:27:36.141Z,87.52
2017-09-16T02:30:01.896Z,87.85
2017-09-16T02:32:27.764Z,88.11
2017-09-16T02:34:53.502Z,88.36
2017-09-16T02:37:19.263Z,88.23
2017-09-16T02:39:45.017Z,88.04
2017-09-16T02:42:10.796Z,89.10
2017-09-16T02:44:37.170Z,88.79
2017-09-16T02:47:03.967Z,88.31
2017-09-16T02:49:29.755Z,88.02
2017-09-16T02:51:55.504Z,88.30
2017-09-16T02:54:21.256Z,88.40
2017-09-16T02:56:47.044Z,88.62
2017-09-16T02:59:12.797Z,88.91
2017-09-16T03:01:38.611Z,89.75
2017-09-16T03:04:04.399Z,89.21
2017-09-16T03:06:30.197Z,88.66
2017-09-16T03:08:55.967Z,87.75
2017-09-16T03:11:21.753Z,88.24
2017-09-16T03:13:47.510Z,88.78
2017-09-16T03:16:13.299Z,88.87
2017-09-16T03:18:39.064Z,88.63
2017-09-16T03:21:04.809Z,88.19
2017-09-16T03:23:30.639Z,88.63
2017-09-16T03:25:56.423Z,89.25
2017-09-16T03:28:22.217Z,89.39
2017-09-16T03:30:48.012Z,88.56
2017-09-16T03:33:13.762Z,88.34
2017-09-16T03:35:39.567Z,87.70
2017-09-16T03:38:05.322Z,87.58
2017-09-16T03:40:31.100Z,87.77
2017-09-16T03:42:56.933Z,88.97
2017-09-16T03:45:22.714Z,88.54
2017-09-16T03:47:48.467Z,89.03
2017-09-16T03:50:14.260Z,88.44
2017-09-16T03:52:40.154Z,88.07
2017-09-16T03:55:05.918Z,87.93
2017-09-16T03:57:31.679Z,89.91
2017-09-16T03:59:57.436Z,90.11
2017-09-16T04:02:35.551Z,89.11
2017-09-16T04:05:01.416Z,88.10
2017-09-16T04:07:27.661Z,87.64
2017-09-16T04:09:53.440Z,87.91
2017-09-16T04:12:19.290Z,88.27
2017-09-16T04:14:45.167Z,88.90
2017-09-16T04:17:10.930Z,88.78
2017-09-16T04:19:36.788Z,89.15
2017-09-16T04:22:02.579Z,88.92
2017-09-16T04:24:28.362Z,88.93
2017-09-16T04:26:54.143Z,88.41
2017-09-16T04:29:19.975Z,88.40
2017-09-16T04:31:46.378Z,88.17
2017-09-16T04:34:12.177Z,88.64
2017-09-16T04:36:37.940Z,89.02
2017-09-16T04:39:03.728Z,88.30
2017-09-16T04:41:29.522Z,87.90
2017-09-16T04:43:55.367Z,88.67
2017-09-16T04:46:21.144Z,88.19
2017-09-16T04:48:46.940Z,87.56
2017-09-16T04:51:12.696Z,88.10
2017-09-16T04:53:38.548Z,89.27
2017-09-16T04:56:04.826Z,90.96
2017-09-16T04:58:30.628Z,89.17
2017-09-16T05:00:56.428Z,88.07
2017-09-16T05:03:22.248Z,88.01
2017-09-16T05:05:48.003Z,87.73
2017-09-16T05:08:13.790Z,88.02
2017-09-16T05:10:39.651Z,88.41
2017-09-16T05:13:05.501Z,88.56
2017-09-16T05:15:31.252Z,89.19
2017-09-16T05:17:57.007Z,88.69
2017-09-16T05:20:22.819Z,90.14
2017-09-16T05:22:48.587Z,89.89
2017-09-16T05:25:14.322Z,90.15
2017-09-16T05:27:41.055Z,89.63
2017-09-16T05:30:06.804Z,89.21
2017-09-16T05:32:32.551Z,89.24
2017-09-16T05:34:58.330Z,89.58
2017-09-16T05:37:24.075Z,88.63
2017-09-16T05:39:49.886Z,88.22
2017-09-16T05:42:15.676Z,87.35
2017-09-16T05:44:41.539Z,87.71
2017-09-16T05:47:07.306Z,89.24
2017-09-16T05:49:33.056Z,88.52
2017-09-16T05:51:58.890Z,87.97
2017-09-16T05:54:24.653Z,88.51
2017-09-16T05:56:50.455Z,86.99
2017-09-16T05:59:16.208Z,87.02
2017-09-16T06:01:42.002Z,87.84
2017-09-16T06:04:07.750Z,87.01
2017-09-16T06:06:33.518Z,86.79
2017-09-16T06:08:59.319Z,86.09
2017-09-16T06:11:25.068Z,84.94
2017-09-16T06:13:50.818Z,86.18
2017-09-16T06:16:16.609Z,89.54
2017-09-16T06:18:42.370Z,87.97
2017-09-16T06:21:08.119Z,86.43
2017-09-16T06:23:33.891Z,86.60
2017-09-16T06:25:59.721Z,85.75
2017-09-16T06:28:25.593Z,86.46
2017-09-16T06:30:51.372Z,88.63
2017-09-16T06:33:17.196Z,87.33
2017-09-16T06:35:43.001Z,85.07
2017-09-16T06:38:08.769Z,85.05
2017-09-16T06:40:34.566Z,86.00
2017-09-16T06:43:00.426Z,85.27
2017-09-16T06:45:26.188Z,84.79
2017-09-16T06:47:51.959Z,84.29
2017-09-16T06:50:17.772Z,84.79
2017-09-16T06:52:43.631Z,86.88
2017-09-16T06:55:09.408Z,87.92
2017-09-16T06:57:35.251Z,84.87
2017-09-16T07:00:01.059Z,83.23
2017-09-16T07:02:26.845Z,82.96
2017-09-16T07:04:52.631Z,83.40
2017-09-16T07:07:18.395Z,82.76
2017-09-16T07:09:44.222Z,83.38
2017-09-16T07:12:09.985Z,83.75
2017-09-16T07:14:35.768Z,82.73
2017-09-16T07:17:01.584Z,82.47
2017-09-16T07:19:27.349Z,81.56
2017-09-16T07:21:53.165Z,80.55
2017-09-16T07:24:18.923Z,81.46
2017-09-16T07:26:44.674Z,82.53
2017-09-16T07:29:10.446Z,82.68
2017-09-16T07:31:36.303Z,82.51
2017-09-16T07:34:02.085Z,82.56
2017-09-16T07:36:27.884Z,80.62
2017-09-16T07:38:53.670Z,79.35
2017-09-16T07:41:19.451Z,79.42
2017-09-16T07:43:45.271Z,79.32
2017-09-16T07:46:11.039Z,79.45
2017-09-16T07:48:36.778Z,78.06
2017-09-16T07:51:02.885Z,79.87
2017-09-16T07:53:28.638Z,79.47
2017-09-16T07:55:55.918Z,77.41
2017-09-16T07:58:21.723Z,79.39
2017-09-16T08:00:47.587Z,77.32
2017-09-16T08:03:13.362Z,78.26
2017-09-16T08:05:39.113Z,78.04
2017-09-16T08:08:04.891Z,78.51
2017-09-16T08:10:30.634Z,78.08
2017-09-16T08:12:56.508Z,78.11
2017-09-16T08:15:22.264Z,78.33
2017-09-16T08:17:48.150Z,78.21
2017-09-16T08:20:13.890Z,78.48
2017-09-16T08:22:39.651Z,78.18
2017-09-16T08:25:05.532Z,77.71
2017-09-16T08:27:31.290Z,77.18
2017-09-16T08:29:57.091Z,76.69
2017-09-16T08:32:22.871Z,75.25
2017-09-16T08:34:48.630Z,76.05
2017-09-16T08:37:14.413Z,75.21
2017-09-16T08:39:40.216Z,73.64
2017-09-16T08:42:05.950Z,76.13
2017-09-16T08:44:31.880Z,74.85
2017-09-16T08:46:57.655Z,74.56
2017-09-16T08:49:23.503Z,77.04
2017-09-16T08:51:49.260Z,75.59
2017-09-16T08:54:15.114Z,75.26
2017-09-16T08:56:41.566Z,68.60
2017-09-16T08:59:07.348Z,68.91
2017-09-16T09:01:33.123Z,68.12
2017-09-16T09:03:59.006Z,67.61
2017-09-16T09:06:24.807Z,67.97
2017-09-16T09:08:50.583Z,67.75
2017-09-16T09:11:16.431Z,67.99
2017-09-16T09:13:42.218Z,69.79
2017-09-16T09:16:07.974Z,68.62
2017-09-16T09:18:33.738Z,69.82
2017-09-16T09:20:59.522Z,67.36
2017-09-16T09:23:25.290Z,67.29
2017-09-16T09:25:51.046Z,66.92
2017-09-16T09:28:16.836Z,65.45
2017-09-16T09:30:42.723Z,65.60
2017-09-16T09:33:08.513Z,66.52
2017-09-16T09:35:34.411Z,66.20
2017-09-16T09:38:00.183Z,66.29
2017-09-16T09:40:25.930Z,65.17
2017-09-16T09:42:51.771Z,66.13
2017-09-16T09:45:17.527Z,65.49
2017-09-16T09:47:43.376Z,64.22
2017-09-16T09:50:09.143Z,62.85
2017-09-16T09:52:34.931Z,63.04
2017-09-16T09:55:00.752Z,63.99
2017-09-16T09:57:26.528Z,62.25
2017-09-16T09:59:52.312Z,61.85
2017-09-16T10:02:18.055Z,63.54
2017-09-16T10:04:43.872Z,62.81
2017-09-16T10:07:09.671Z,61.11
2017-09-16T10:09:35.422Z,61.49
2017-09-16T10:12:01.222Z,60.34
2017-09-16T10:14:27.048Z,58.37
2017-09-16T10:16:52.900Z,55.41
2017-09-16T10:19:18.758Z,54.43
2017-09-16T10:21:44.526Z,52.64
2017-09-16T10:24:10.287Z,52.50
2017-09-16T10:26:36.075Z,51.65
2017-09-16T10:29:01.953Z,48.88
2017-09-16T10:31:27.744Z,46.91
2017-09-16T10:33:53.515Z,42.25
2017-09-16T10:36:19.278Z,45.88
2017-09-16T10:38:45.123Z,42.68
2017-09-16T10:41:10.882Z,43.25
2017-09-16T10:43:36.658Z,48.24
2017-09-16T10:46:02.534Z,48.89
2017-09-16T10:48:28.424Z,48.42
2017-09-16T10:50:54.239Z,45.81
2017-09-16T10:53:20.067Z,43.44
2017-09-16T10:55:46.409Z,47.57
2017-09-16T10:58:12.227Z,45.67
2017-09-16T11:00:38.055Z,40.32
2017-09-16T11:03:03.928Z,39.43
2017-09-16T11:05:29.711Z,36.05
2017-09-16T11:07:55.468Z,40.12
2017-09-16T11:10:21.235Z,40.39
2017-09-16T11:12:47.108Z,44.39
2017-09-16T11:15:12.892Z,41.83
2017-09-16T11:17:38.758Z,41.62
2017-09-16T11:20:04.521Z,43.19
2017-09-16T11:22:30.324Z,42.91
2017-09-16T11:24:56.104Z,46.74
2017-09-16T11:27:21.850Z,47.03
2017-09-16T11:29:47.628Z,47.04
2017-09-16T11:32:13.442Z,48.27
2017-09-16T11:34:39.170Z,49.34
2017-09-16T11:37:04.950Z,49.59
2017-09-16T11:39:30.711Z,51.74
2017-09-16T11:41:56.550Z,52.69
2017-09-16T11:44:22.432Z,53.54
2017-09-16T11:46:48.202Z,56.25
2017-09-16T11:49:13.991Z,58.36
2017-09-16T11:51:39.752Z,59.83
2017-09-16T11:54:05.540Z,59.67
2017-09-16T11:56:31.315Z,64.57
2017-09-16T11:58:57.062Z,66.54
2017-09-16T12:01:22.860Z,70.31
2017-09-16T12:03:48.604Z,74.10
2017-09-16T12:06:14.357Z,74.41
2017-09-16T12:08:40.145Z,73.77
2017-09-16T12:11:05.906Z,74.74
2017-09-16T12:13:31.722Z,75.83
2017-09-16T12:15:57.496Z,76.21
2017-09-16T12:18:23.251Z,75.15
2017-09-16T12:20:49.082Z,75.82
2017-09-16T12:23:14.826Z,71.86
2017-09-16T12:25:40.588Z,68.52
2017-09-16T12:28:06.355Z,68.83
2017-09-16T12:30:32.107Z,67.16
2017-09-16T12:32:57.888Z,63.59
2017-09-16T12:35:23.650Z,57.72
2017-09-16T12:37:50.245Z,59.49
2017-09-16T12:40:15.996Z,61.66
2017-09-16T12:42:41.755Z,59.45
2017-09-16T12:45:07.583Z,60.35
2017-09-16T12:47:33.344Z,59.01
2017-09-16T12:49:59.123Z,59.68
2017-09-16T12:52:24.891Z,60.08
2017-09-16T12:54:50.647Z,60.09
2017-09-16T12:57:16.435Z,60.82
2017-09-16T12:59:42.213Z,61.73
2017-09-16T13:02:08.052Z,63.45
2017-09-16T13:04:33.803Z,62.55
2017-09-16T13:06:59.640Z,63.24
2017-09-16T13:09:25.383Z,62.26
2017-09-16T13:11:51.139Z,63.44
2017-09-16T13:14:16.911Z,62.14
2017-09-16T13:16:42.671Z,64.25
2017-09-16T13:19:08.489Z,63.90
2017-09-16T13:21:34.236Z,61.77
2017-09-16T13:23:59.981Z,63.85
2017-09-16T13:26:25.771Z,61.74
2017-09-16T13:28:51.583Z,63.66
2017-09-16T13:31:17.343Z,62.64
2017-09-16T13:33:43.136Z,63.44
2017-09-16T13:36:08.896Z,64.08
2017-09-16T13:38:34.655Z,62.73
2017-09-16T13:41:00.470Z,60.03
2017-09-16T13:43:26.240Z,58.63
2017-09-16T13:45:51.993Z,61.68
2017-09-16T13:48:17.800Z,61.58
2017-09-16T13:50:43.547Z,63.28
2017-09-16T13:53:09.318Z,64.65
2017-09-16T13:55:35.179Z,64.35
2017-09-16T13:58:00.967Z,65.16
2017-09-16T14:00:26.816Z,67.07
2017-09-16T14:02:52.566Z,67.67
2017-09-16T14:05:18.380Z,66.23
2017-09-16T14:07:44.156Z,63.58
2017-09-16T14:10:09.928Z,67.39
2017-09-16T14:12:35.716Z,69.76
2017-09-16T14:15:01.480Z,69.74
2017-09-16T14:17:27.244Z,67.53
2017-09-16T14:19:53.150Z,70.03
2017-09-16T14:22:18.902Z,74.12
2017-09-16T14:24:44.655Z,75.71
2017-09-16T14:27:10.434Z,79.20
2017-09-16T14:29:36.187Z,81.84
2017-09-16T14:32:01.983Z,83.96
2017-09-16T14:34:27.724Z,82.58
2017-09-16T14:36:53.503Z,83.92
2017-09-16T14:39:19.286Z,84.19
2017-09-16T14:41:45.059Z,85.32
2017-09-16T14:44:10.803Z,87.00
2017-09-16T14:46:36.575Z,87.52
2017-09-16T14:49:02.380Z,87.89
2017-09-16T14:51:28.179Z,87.45
2017-09-16T14:53:54.028Z,88.43
2017-09-16T14:56:19.782Z,88.95
2017-09-16T14:58:45.542Z,88.41
2017-09-16T15:01:11.295Z,88.96
2017-09-16T15:03:37.099Z,89.35
2017-09-16T15:06:02.846Z,89.09
2017-09-16T15:08:28.649Z,89.47
2017-09-16T15:10:54.430Z,88.97
2017-09-16T15:13:20.188Z,90.35
2017-09-16T15:15:45.976Z,89.96
2017-09-16T15:18:11.740Z,89.49
2017-09-16T15:20:37.492Z,88.62
2017-09-16T15:23:03.291Z,88.21
2017-09-16T15:25:29.043Z,88.34
2017-09-16T15:27:54.782Z,89.47
2017-09-16T15:30:20.588Z,89.92
2017-09-16T15:32:46.364Z,91.93
2017-09-16T15:35:12.136Z,90.78
2017-09-16T15:37:37.932Z,91.11
2017-09-16T15:40:03.747Z,91.94
2017-09-16T15:42:29.539Z,91.11
2017-09-16T15:44:55.327Z,91.16
2017-09-16T15:47:21.104Z,90.25
2017-09-16T15:49:46.959Z,90.93
2017-09-16T15:52:12.730Z,90.59
2017-09-16T15:54:38.486Z,89.62
2017-09-16T15:57:04.236Z,90.87
2017-09-16T15:59:30.012Z,91.91
2017-09-16T16:01:55.750Z,90.25
2017-09-16T16:04:21.551Z,90.53
2017-09-16T16:06:47.308Z,90.58
2017-09-16T16:09:15.075Z,91.04
2017-09-16T16:11:40.862Z,88.93
2017-09-16T16:14:06.619Z,90.41
2017-09-16T16:16:32.403Z,90.65
2017-09-16T16:18:58.154Z,91.13
2017-09-16T16:21:23.904Z,91.53
2017-09-16T16:23:49.688Z,90.99
2017-09-16T16:26:16.214Z,92.55
2017-09-16T16:28:42.000Z,92.83
2017-09-16T16:31:07.781Z,93.06
2017-09-16T16:33:33.538Z,93.52
2017-09-16T16:35:59.320Z,94.07
2017-09-16T16:38:25.098Z,92.50
2017-09-16T16:40:50.856Z,92.62
2017-09-16T16:43:16.632Z,91.21
2017-09-16T16:45:42.396Z,92.36
2017-09-16T16:48:08.178Z,91.07
2017-09-16T16:50:33.943Z,89.51
2017-09-16T16:52:59.686Z,89.17
2017-09-16T16:55:25.496Z,91.55
2017-09-16T16:57:51.263Z,89.38
2017-09-16T17:00:17.007Z,90.69
2017-09-16T17:02:42.793Z,92.71
2017-09-16T17:05:08.558Z,89.56
2017-09-16T17:07:34.955Z,89.59
2017-09-16T17:10:00.799Z,89.01
2017-09-16T17:12:26.556Z,90.27
2017-09-16T17:14:52.379Z,89.22
2017-09-16T17:17:18.116Z,88.31
2017-09-16T17:19:43.858Z,88.17
2017-09-16T17:22:09.639Z,91.02
2017-09-16T17:24:35.440Z,90.40
2017-09-16T17:27:01.192Z,90.75
2017-09-16T17:29:26.974Z,90.99
2017-09-16T17:31:52.721Z,89.59
2017-09-16T17:34:18.477Z,90.28
2017-09-16T17:36:44.264Z,90.53
2017-09-16T17:39:10.023Z,91.50
2017-09-16T17:41:35.779Z,91.23
2017-09-16T17:44:01.647Z,90.02
2017-09-16T17:46:27.406Z,90.78
2017-09-16T17:48:53.238Z,90.43
2017-09-16T17:51:19.014Z,91.19
2017-09-16T17:53:44.828Z,91.42
2017-09-16T17:56:10.591Z,92.97
2017-09-16T17:58:36.373Z,94.03
2017-09-16T18:01:02.168Z,94.30
2017-09-16T18:03:27.971Z,93.83
2017-09-16T18:05:53.770Z,93.08
2017-09-16T18:08:19.527Z,93.66
2017-09-16T18:10:45.286Z,94.06
2017-09-16T18:13:11.068Z,94.27
2017-09-16T18:15:36.823Z,93.75
2017-09-16T18:18:02.579Z,93.77
2017-09-16T18:20:28.408Z,93.37
2017-09-16T18:22:54.166Z,93.46
2017-09-16T18:25:19.923Z,94.12
2017-09-16T18:27:45.800Z,94.37
2017-09-16T18:30:11.546Z,94.35
2017-09-16T18:32:37.291Z,94.15
2017-09-16T18:35:03.067Z,94.23
2017-09-16T18:37:28.819Z,94.82
2017-09-16T18:39:54.569Z,94.83
2017-09-16T18:42:20.346Z,94.04
2017-09-16T18:44:46.134Z,94.56
2017-09-16T18:47:11.908Z,95.10
2017-09-16T18:49:37.648Z,94.80
2017-09-16T18:52:03.432Z,94.91
2017-09-16T18:54:29.211Z,94.34
2017-09-16T18:56:54.969Z,94.33
2017-09-16T18:59:20.737Z,94.31
2017-09-16T19:01:46.516Z,95.23
2017-09-16T19:04:12.340Z,95.13
2017-09-16T19:06:38.131Z,94.04
2017-09-16T19:09:03.911Z,94.87
2017-09-16T19:11:29.739Z,94.45
2017-09-16T19:13:55.497Z,94.63
2017-09-16T19:16:21.252Z,94.71
2017-09-16T19:18:47.020Z,95.21
2017-09-16T19:21:12.774Z,94.27
2017-09-16T19:23:38.541Z,94.47
2017-09-16T19:26:04.444Z,94.77
2017-09-16T19:28:30.306Z,95.06
2017-09-16T19:30:56.062Z,96.01
2017-09-16T19:33:21.855Z,96.66
2017-09-16T19:35:47.617Z,97.02
2017-09-16T19:38:13.367Z,97.20
2017-09-16T19:40:39.170Z,96.86
2017-09-16T19:43:04.924Z,96.32
2017-09-16T19:45:30.712Z,96.40
2017-09-16T19:47:57.412Z,96.08
2017-09-16T19:50:23.180Z,96.78
2017-09-16T19:52:49.030Z,97.64
2017-09-16T19:55:14.872Z,97.50
2017-09-16T19:57:40.640Z,96.14
2017-09-16T20:00:06.411Z,96.44
2017-09-16T20:02:32.204Z,95.97
2017-09-16T20:04:57.972Z,95.48
2017-09-16T20:07:23.776Z,95.00
2017-09-16T20:09:49.551Z,94.65
2017-09-16T20:12:15.331Z,93.98
2017-09-16T20:14:41.148Z,94.41
2017-09-16T20:17:06.936Z,95.08
2017-09-16T20:19:32.682Z,94.82
2017-09-16T20:21:58.419Z,94.77
2017-09-16T20:24:24.198Z,95.04
2017-09-16T20:26:49.978Z,94.94
2017-09-16T20:29:15.795Z,95.52
2017-09-16T20:31:41.556Z,95.86
2017-09-16T20:34:07.328Z,95.41
2017-09-16T20:36:33.141Z,94.72
2017-09-16T20:38:58.914Z,94.57
2017-09-16T20:41:24.668Z,94.43
2017-09-16T20:43:50.504Z,94.97
2017-09-16T20:46:16.252Z,94.86
2017-09-16T20:48:42.084Z,94.02
2017-09-16T20:51:07.843Z,94.13
2017-09-16T20:53:33.596Z,94.71
2017-09-16T20:55:59.383Z,94.95
2017-09-16T20:58:25.164Z,95.11
2017-09-16T21:00:50.985Z,94.87
2017-09-16T21:03:16.742Z,95.64
2017-09-16T21:05:42.628Z,95.56
2017-09-16T21:08:08.429Z,95.39
2017-09-16T21:10:34.268Z,94.42
2017-09-16T21:13:00.019Z,93.63
2017-09-16T21:15:25.763Z,92.76
2017-09-16T21:17:51.563Z,92.98
2017-09-16T21:20:17.314Z,92.73
2017-09-16T21:22:43.062Z,93.39
2017-09-16T21:25:08.865Z,94.31
2017-09-16T21:27:34.619Z,94.30
2017-09-16T21:30:00.452Z,93.93
2017-09-16T21:32:26.228Z,93.83
2017-09-16T21:34:51.974Z,94.80
2017-09-16T21:37:17.800Z,95.82
2017-09-16T21:39:43.559Z,95.36
2017-09-16T21:42:09.304Z,94.93
2017-09-16T21:44:35.081Z,95.14
2017-09-16T21:47:00.886Z,94.71
2017-09-16T21:49:26.638Z,94.63
2017-09-16T21:51:52.423Z,95.11
2017-09-16T21:54:18.176Z,94.51
2017-09-16T21:56:43.997Z,94.56
2017-09-16T21:59:09.851Z,94.20
2017-09-16T22:01:35.607Z,94.11
2017-09-16T22:04:02.090Z,94.55
2017-09-16T22:06:27.864Z,94.89
2017-09-16T22:08:53.637Z,95.30
2017-09-16T22:11:19.410Z,95.40
2017-09-16T22:13:45.271Z,95.17
2017-09-16T22:16:11.029Z,94.67
2017-09-16T22:18:36.766Z,95.31
2017-09-16T22:21:02.553Z,95.33
2017-09-16T22:23:28.315Z,94.69
2017-09-16T22:25:54.110Z,94.54
2017-09-16T22:28:19.882Z,95.19
2017-09-16T22:30:45.642Z,95.35
2017-09-16T22:33:11.430Z,95.56
2017-09-16T22:35:37.186Z,95.53
2017-09-16T22:38:02.958Z,95.40
2017-09-16T22:40:28.739Z,95.18
2017-09-16T22:42:54.511Z,95.11
2017-09-16T22:45:20.268Z,95.32
2017-09-16T22:47:46.039Z,95.37
2017-09-16T22:50:11.865Z,94.79
2017-09-16T22:52:37.627Z,94.89
2017-09-16T22:55:03.447Z,94.86
2017-09-16T22:57:29.239Z,94.98
2017-09-16T22:59:54.998Z,94.99
2017-09-16T23:02:20.760Z,95.28
2017-09-16T23:04:46.821Z,96.00
2017-09-16T23:07:12.578Z,96.62
2017-09-16T23:09:38.342Z,96.67
2017-09-16T23:12:04.112Z,96.25
2017-09-16T23:14:29.899Z,95.28
2017-09-16T23:16:55.651Z,94.72
2017-09-16T23:19:21.422Z,95.24
2017-09-16T23:21:47.208Z,95.02
2017-09-16T23:24:12.955Z,95.04
2017-09-16T23:26:38.723Z,94.88
2017-09-16T23:29:04.496Z,94.94
2017-09-16T23:31:30.293Z,94.25
2017-09-16T23:33:56.078Z,94.36
2017-09-16T23:36:21.871Z,94.78
2017-09-16T23:38:47.633Z,95.16
2017-09-16T23:41:13.391Z,95.04
2017-09-16T23:43:39.178Z,94.20
2017-09-16T23:46:04.936Z,95.13
2017-09-16T23:48:30.699Z,94.79
2017-09-16T23:50:56.471Z,94.66
2017-09-16T23:53:22.218Z,94.61
2017-09-16T23:55:49.592Z,94.85
2017-09-16T23:58:15.396Z,94.68
